createdAt,value
2023-02-16T00:01:19.127Z,49.42
2023-02-16T00:06:16.337Z,57.75
2023-02-16T00:08:44.985Z,52.78
2023-02-16T00:11:40.535Z,53.70
2023-02-16T00:14:10.181Z,59.38
2023-02-16T00:16:38.195Z,59.35
2023-02-16T00:19:16.568Z,53.63
2023-02-16T00:21:45.657Z,55.85
2023-02-16T00:24:13.327Z,58.25
2023-02-16T00:26:41.918Z,66.03
2023-02-16T00:29:12.050Z,68.43
2023-02-16T00:31:39.818Z,58.58
2023-02-16T00:34:22.063Z,64.65
2023-02-16T00:36:51.047Z,67.22
2023-02-16T00:39:18.850Z,67.20
2023-02-16T00:41:52.500Z,54.60
2023-02-16T00:44:21.636Z,63.75
2023-02-16T00:46:49.410Z,60.15
2023-02-16T00:49:17.521Z,67.05
2023-02-16T00:51:45.627Z,63.33
2023-02-16T00:54:14.882Z,67.25
2023-02-16T00:56:43.366Z,64.57
2023-02-16T00:59:15.152Z,62.08
2023-02-16T01:01:42.918Z,67.90
2023-02-16T01:04:13.712Z,58.80
2023-02-16T01:06:58.976Z,51.63
2023-02-16T01:09:45.679Z,63.92
2023-02-16T01:12:15.168Z,55.38
2023-02-16T01:14:42.896Z,56.75
2023-02-16T01:17:11.290Z,61.72
2023-02-16T01:19:38.972Z,57.20
2023-02-16T01:22:07.469Z,56.80
2023-02-16T01:24:36.560Z,61.78
2023-02-16T01:27:04.351Z,57.28
2023-02-16T01:29:32.110Z,53.60
2023-02-16T01:31:59.950Z,55.53
2023-02-16T01:34:27.722Z,59.13
2023-02-16T01:36:56.514Z,66.47
2023-02-16T01:39:24.134Z,64.03
2023-02-16T01:42:03.340Z,64.10
2023-02-16T01:44:33.219Z,55.55
2023-02-16T01:47:03.364Z,53.83
2023-02-16T01:49:31.018Z,58.97
2023-02-16T01:52:00.960Z,59.80
2023-02-16T01:54:37.483Z,68.00
2023-02-16T01:57:11.741Z,56.95
2023-02-16T02:00:04.096Z,56.35
2023-02-16T02:02:37.958Z,57.03
2023-02-16T02:05:26.882Z,54.10
2023-02-16T02:07:57.913Z,50.80
2023-02-16T02:10:29.121Z,55.15
2023-02-16T02:13:01.082Z,52.53
2023-02-16T02:15:30.844Z,56.85
2023-02-16T02:17:58.639Z,55.13
2023-02-16T02:20:48.550Z,56.22
2023-02-16T02:23:33.106Z,45.67
2023-02-16T02:26:24.955Z,46.72
2023-02-16T02:28:56.932Z,53.30
2023-02-16T02:31:30.563Z,57.05
2023-02-16T02:34:02.270Z,59.53
2023-02-16T02:36:32.330Z,54.17
2023-02-16T02:39:05.360Z,58.63
2023-02-16T02:41:50.654Z,53.40
2023-02-16T02:44:21.974Z,43.38
2023-02-16T02:46:49.922Z,51.35
2023-02-16T02:49:17.696Z,49.85
2023-02-16T02:51:45.630Z,47.05
2023-02-16T02:54:32.733Z,51.33
2023-02-16T02:57:19.332Z,49.60
2023-02-16T03:00:08.605Z,46.80
2023-02-16T03:02:37.014Z,53.45
2023-02-16T03:05:06.398Z,50.22
2023-02-16T03:07:49.955Z,47.63
2023-02-16T03:10:36.771Z,55.58
2023-02-16T03:13:05.406Z,49.78
2023-02-16T03:15:35.924Z,48.95
2023-02-16T03:18:21.493Z,43.47
2023-02-16T03:21:06.892Z,55.40
2023-02-16T03:23:52.137Z,47.42
2023-02-16T03:26:37.924Z,47.78
2023-02-16T03:29:22.040Z,54.67
2023-02-16T03:34:21.688Z,46.15
2023-02-16T03:36:50.387Z,43.78
2023-02-16T03:39:18.387Z,49.55
2023-02-16T03:41:49.065Z,44.67
2023-02-16T03:44:16.794Z,50.88
2023-02-16T03:46:44.497Z,47.85
2023-02-16T03:49:12.288Z,46.17
2023-02-16T03:51:41.330Z,45.97
2023-02-16T03:54:09.072Z,50.55
2023-02-16T03:56:36.743Z,40.70
2023-02-16T03:59:04.536Z,42.75
2023-02-16T04:01:32.335Z,44.72
2023-02-16T04:04:00.002Z,48.10
2023-02-16T04:06:27.723Z,44.60
2023-02-16T04:08:56.994Z,45.33
2023-02-16T04:11:42.297Z,45.20
2023-02-16T04:14:10.020Z,42.70
2023-02-16T04:16:37.732Z,40.33
2023-02-16T04:19:06.558Z,50.08
2023-02-16T04:21:34.245Z,41.60
2023-02-16T04:24:05.772Z,36.00
2023-02-16T04:26:33.639Z,43.72
2023-02-16T04:29:01.466Z,49.15
2023-02-16T04:31:29.264Z,40.65
2023-02-16T04:33:57.022Z,40.10
2023-02-16T04:36:24.679Z,45.63
2023-02-16T04:38:53.275Z,44.00
2023-02-16T04:41:22.487Z,39.20
2023-02-16T04:43:50.601Z,42.95
2023-02-16T04:46:19.296Z,46.35
2023-02-16T04:48:47.702Z,38.72
2023-02-16T04:51:16.079Z,44.03
2023-02-16T04:53:43.944Z,47.00
2023-02-16T04:56:11.817Z,43.42
2023-02-16T04:58:40.982Z,36.05
2023-02-16T05:01:08.916Z,43.22
2023-02-16T05:03:36.629Z,37.28
2023-02-16T05:06:04.412Z,39.17
2023-02-16T05:08:32.948Z,43.78
2023-02-16T05:11:18.039Z,38.78
2023-02-16T05:14:04.593Z,47.30
2023-02-16T05:16:32.342Z,35.25
2023-02-16T05:19:00.010Z,32.50
2023-02-16T05:21:33.887Z,35.60
2023-02-16T05:24:02.609Z,44.67
2023-02-16T05:26:30.664Z,33.72
2023-02-16T05:29:00.223Z,43.35
2023-02-16T05:31:28.728Z,38.67
2023-02-16T05:33:56.573Z,48.50
2023-02-16T05:36:24.752Z,44.10
2023-02-16T05:38:52.540Z,35.38
2023-02-16T05:41:24.460Z,39.80
2023-02-16T05:43:53.297Z,44.85
2023-02-16T05:46:22.536Z,40.28
2023-02-16T05:48:50.773Z,36.60
2023-02-16T05:51:18.852Z,42.67
2023-02-16T05:53:47.212Z,34.85
2023-02-16T05:56:15.377Z,43.42
2023-02-16T05:58:43.048Z,38.50
2023-02-16T06:01:11.113Z,49.45
2023-02-16T06:03:40.175Z,36.85
2023-02-16T06:06:09.140Z,39.67
2023-02-16T06:08:37.599Z,43.00
2023-02-16T06:11:07.061Z,40.42
2023-02-16T06:13:34.946Z,39.60
2023-02-16T06:16:02.746Z,41.17
2023-02-16T06:18:30.527Z,37.63
2023-02-16T06:20:59.599Z,38.75
2023-02-16T06:23:27.346Z,33.80
2023-02-16T06:25:55.179Z,43.40
2023-02-16T06:28:22.858Z,36.55
2023-02-16T06:30:50.783Z,35.47
2023-02-16T06:33:18.468Z,35.17
2023-02-16T06:35:46.291Z,38.80
2023-02-16T06:38:15.317Z,34.08
2023-02-16T06:40:44.244Z,37.42
2023-02-16T06:43:11.948Z,39.78
2023-02-16T06:45:39.647Z,36.65
2023-02-16T06:48:07.374Z,39.97
2023-02-16T06:50:35.054Z,38.88
2023-02-16T06:53:02.786Z,42.90
2023-02-16T06:55:36.787Z,38.58
2023-02-16T06:58:04.580Z,39.72
2023-02-16T07:00:32.654Z,39.25
2023-02-16T07:03:00.357Z,38.45
2023-02-16T07:05:28.118Z,40.45
2023-02-16T07:07:56.101Z,37.40
2023-02-16T07:10:23.757Z,44.28
2023-02-16T07:12:52.827Z,36.70
2023-02-16T07:15:20.540Z,39.45
2023-02-16T07:17:48.253Z,39.47
2023-02-16T07:20:15.979Z,45.92
2023-02-16T07:22:44.451Z,37.08
2023-02-16T07:25:12.107Z,40.10
2023-02-16T07:27:39.758Z,38.13
2023-02-16T07:30:11.033Z,41.75
2023-02-16T07:32:39.625Z,39.13
2023-02-16T07:35:07.645Z,39.72
2023-02-16T07:37:35.367Z,42.10
2023-02-16T07:40:03.069Z,36.25
2023-02-16T07:42:31.334Z,40.60
2023-02-16T07:44:59.040Z,36.58
2023-02-16T07:47:28.140Z,41.67
2023-02-16T07:49:55.834Z,41.95
2023-02-16T07:52:25.869Z,41.40
2023-02-16T07:54:53.559Z,37.28
2023-02-16T07:57:21.222Z,38.28
2023-02-16T07:59:51.640Z,41.85
2023-02-16T08:02:25.340Z,49.28
2023-02-16T08:04:54.406Z,36.05
2023-02-16T08:07:22.500Z,39.40
2023-02-16T08:09:50.181Z,37.13
2023-02-16T08:12:19.279Z,37.92
2023-02-16T08:14:47.703Z,40.15
2023-02-16T08:17:15.788Z,47.10
2023-02-16T08:19:43.426Z,38.97
2023-02-16T08:22:13.255Z,41.42
2023-02-16T08:24:40.873Z,45.58
2023-02-16T08:27:08.578Z,40.28
2023-02-16T08:29:36.251Z,54.53
2023-02-16T08:32:07.715Z,43.25
2023-02-16T08:34:36.060Z,45.45
2023-02-16T08:37:04.599Z,36.15
2023-02-16T08:39:34.207Z,42.40
2023-02-16T08:42:03.130Z,49.22
2023-02-16T08:44:31.333Z,50.58
2023-02-16T08:47:00.744Z,48.97
2023-02-16T08:49:28.747Z,43.03
2023-02-16T08:51:58.713Z,48.38
2023-02-16T08:54:29.961Z,49.90
2023-02-16T08:56:59.896Z,46.58
2023-02-16T08:59:28.823Z,52.33
2023-02-16T09:01:58.067Z,44.13
2023-02-16T09:04:27.478Z,45.20
2023-02-16T09:06:56.173Z,45.78
2023-02-16T09:09:24.077Z,43.85
2023-02-16T09:11:51.866Z,45.35
2023-02-16T09:14:21.633Z,48.00
2023-02-16T09:16:49.589Z,43.40
2023-02-16T09:19:18.941Z,44.72
2023-02-16T09:21:48.644Z,45.72
2023-02-16T09:24:16.446Z,45.60
2023-02-16T09:26:44.724Z,39.22
2023-02-16T09:29:14.037Z,43.15
2023-02-16T09:31:45.029Z,42.40
2023-02-16T09:34:17.204Z,39.63
2023-02-16T09:36:45.146Z,45.50
2023-02-16T09:39:14.003Z,44.92
2023-02-16T09:41:53.925Z,46.08
2023-02-16T09:44:29.397Z,39.75
2023-02-16T09:46:59.785Z,49.47
2023-02-16T09:49:30.106Z,40.35
2023-02-16T09:52:01.097Z,39.53
2023-02-16T09:54:35.445Z,43.35
2023-02-16T09:57:08.316Z,38.83
2023-02-16T09:59:43.192Z,40.88
2023-02-16T10:02:25.340Z,38.60
2023-02-16T10:05:13.269Z,31.98
2023-02-16T10:07:43.735Z,39.00
2023-02-16T10:10:14.884Z,37.13
2023-02-16T10:12:44.649Z,39.20
2023-02-16T10:15:16.416Z,32.72
2023-02-16T10:17:48.009Z,41.72
2023-02-16T10:20:17.528Z,36.67
2023-02-16T10:22:48.970Z,35.67
2023-02-16T10:25:20.091Z,36.70
2023-02-16T10:27:51.325Z,33.35
2023-02-16T10:30:21.041Z,40.40
2023-02-16T10:32:56.371Z,35.63
2023-02-16T10:37:55.532Z,33.80
2023-02-16T10:40:34.725Z,34.58
2023-02-16T10:43:07.136Z,36.63
2023-02-16T10:45:37.948Z,38.60
2023-02-16T10:48:08.519Z,34.90
2023-02-16T10:50:38.916Z,35.05
2023-02-16T10:53:11.166Z,29.88
2023-02-16T10:55:39.465Z,35.83
2023-02-16T10:58:14.937Z,39.45
2023-02-16T11:00:48.383Z,29.40
2023-02-16T11:03:18.121Z,35.03
2023-02-16T11:05:46.740Z,32.17
2023-02-16T11:08:14.796Z,37.70
2023-02-16T11:10:46.161Z,27.50
2023-02-16T11:13:28.130Z,34.33
2023-02-16T11:15:57.309Z,27.52
2023-02-16T11:18:30.098Z,29.02
2023-02-16T11:20:59.573Z,29.75
2023-02-16T11:23:28.223Z,31.70
2023-02-16T11:25:58.186Z,29.63
2023-02-16T11:28:32.421Z,30.80
2023-02-16T11:31:02.820Z,31.58
2023-02-16T11:33:32.763Z,31.67
2023-02-16T11:36:02.441Z,27.95
2023-02-16T11:38:31.717Z,31.35
2023-02-16T11:41:00.721Z,28.40
2023-02-16T11:43:29.951Z,29.33
2023-02-16T11:45:58.798Z,28.75
2023-02-16T11:48:28.563Z,29.70
2023-02-16T11:51:00.189Z,22.70
2023-02-16T11:53:29.151Z,35.35
2023-02-16T11:56:11.181Z,26.33
2023-02-16T11:58:39.043Z,34.28
2023-02-16T12:01:15.037Z,26.50
2023-02-16T12:03:59.861Z,26.10
2023-02-16T12:06:33.695Z,31.03
2023-02-16T12:09:09.028Z,24.08
2023-02-16T12:14:13.857Z,27.13
2023-02-16T12:16:45.106Z,30.23
2023-02-16T12:19:20.065Z,30.67
2023-02-16T12:21:50.567Z,27.23
2023-02-16T12:24:28.367Z,33.55
2023-02-16T12:26:58.007Z,30.80
2023-02-16T12:29:30.195Z,28.63
2023-02-16T12:32:02.999Z,29.00
2023-02-16T12:34:36.409Z,33.75
2023-02-16T12:37:10.255Z,22.55
2023-02-16T12:39:42.267Z,26.45
2023-02-16T12:42:20.261Z,25.98
2023-02-16T12:44:49.647Z,23.80
2023-02-16T12:47:20.794Z,23.25
2023-02-16T12:49:53.393Z,28.58
2023-02-16T12:52:28.518Z,22.77
2023-02-16T12:54:58.951Z,25.15
2023-02-16T12:57:30.607Z,29.88
2023-02-16T12:59:59.503Z,25.92
2023-02-16T13:02:30.078Z,36.95
2023-02-16T13:04:59.740Z,29.15
2023-02-16T13:07:32.676Z,22.00
2023-02-16T13:10:03.208Z,24.20
2023-02-16T13:12:33.404Z,22.40
2023-02-16T13:15:08.000Z,20.58
2023-02-16T13:17:36.695Z,20.70
2023-02-16T13:20:04.927Z,23.48
2023-02-16T13:22:44.905Z,22.33
2023-02-16T13:25:29.717Z,22.08
2023-02-16T13:28:02.942Z,26.53
2023-02-16T13:30:48.071Z,21.70
2023-02-16T13:33:24.569Z,22.45
2023-02-16T13:36:01.335Z,23.02
2023-02-16T13:38:40.951Z,26.27
2023-02-16T13:41:14.843Z,19.48
2023-02-16T13:43:43.462Z,20.25
2023-02-16T13:46:15.056Z,21.15
2023-02-16T13:48:47.408Z,21.55
2023-02-16T13:51:16.708Z,19.45
2023-02-16T13:53:51.658Z,20.50
2023-02-16T13:56:24.132Z,22.60
2023-02-16T13:58:52.239Z,20.48
2023-02-16T14:01:38.813Z,20.17
2023-02-16T14:04:07.656Z,21.83
2023-02-16T14:06:37.172Z,21.17
2023-02-16T14:09:21.399Z,17.65
2023-02-16T14:12:14.365Z,18.70
2023-02-16T14:14:46.455Z,19.05
2023-02-16T14:17:18.383Z,24.92
2023-02-16T14:19:53.843Z,21.73
2023-02-16T14:22:23.058Z,20.02
2023-02-16T14:24:54.840Z,24.23
2023-02-16T14:30:27.069Z,22.65
2023-02-16T14:32:57.604Z,25.10
2023-02-16T14:35:28.094Z,19.75
2023-02-16T14:37:57.958Z,24.73
2023-02-16T14:40:40.438Z,20.80
2023-02-16T14:43:14.549Z,17.80
2023-02-16T14:45:55.175Z,18.45
2023-02-16T14:48:30.078Z,18.08
2023-02-16T14:51:10.098Z,16.10
2023-02-16T14:53:55.775Z,17.77
2023-02-16T14:56:30.017Z,17.60
2023-02-16T14:59:03.031Z,17.75
2023-02-16T15:01:39.665Z,19.60
2023-02-16T15:04:07.740Z,21.73
2023-02-16T15:06:38.215Z,21.48
2023-02-16T15:09:07.202Z,26.73
2023-02-16T15:11:59.327Z,22.75
2023-02-16T15:14:27.852Z,21.85
2023-02-16T15:16:58.601Z,25.02
2023-02-16T15:19:28.905Z,26.50
2023-02-16T15:22:09.076Z,20.88
2023-02-16T15:24:37.374Z,22.45
2023-02-16T15:27:05.162Z,21.92
2023-02-16T15:29:33.421Z,21.65
2023-02-16T15:32:02.536Z,21.60
2023-02-16T15:34:33.318Z,18.92
2023-02-16T15:37:02.376Z,18.73
2023-02-16T15:39:45.093Z,23.05
2023-02-16T15:42:21.665Z,22.80
2023-02-16T15:44:49.500Z,22.25
2023-02-16T15:47:22.502Z,19.27
2023-02-16T15:49:50.324Z,17.33
2023-02-16T15:52:19.539Z,23.05
2023-02-16T15:54:48.302Z,21.98
2023-02-16T15:57:21.245Z,15.43
2023-02-16T15:59:50.013Z,17.98
2023-02-16T16:02:20.583Z,18.58
2023-02-16T16:04:49.872Z,19.52
2023-02-16T16:07:20.065Z,24.42
2023-02-16T16:09:48.324Z,23.70
2023-02-16T16:12:18.331Z,26.98
2023-02-16T16:14:49.992Z,22.65
2023-02-16T16:17:22.629Z,20.85
2023-02-16T16:19:51.505Z,21.88
2023-02-16T16:22:30.134Z,26.10
2023-02-16T16:24:57.829Z,27.05
2023-02-16T16:27:29.639Z,22.27
2023-02-16T16:30:10.317Z,21.70
2023-02-16T16:32:39.606Z,18.17
2023-02-16T16:35:19.772Z,22.77
2023-02-16T16:37:50.302Z,17.40
2023-02-16T16:40:22.498Z,19.73
2023-02-16T16:43:07.573Z,18.67
2023-02-16T16:45:37.224Z,20.17
2023-02-16T16:48:11.020Z,20.88
2023-02-16T16:50:39.987Z,16.05
2023-02-16T16:53:31.702Z,16.42
2023-02-16T16:56:02.485Z,15.77
2023-02-16T16:58:30.210Z,18.42
2023-02-16T17:00:57.919Z,17.52
2023-02-16T17:03:26.976Z,18.15
2023-02-16T17:05:54.623Z,15.10
2023-02-16T17:08:22.323Z,17.45
2023-02-16T17:10:50.036Z,14.20
2023-02-16T17:13:19.788Z,17.02
2023-02-16T17:15:49.695Z,17.15
2023-02-16T17:18:18.128Z,17.92
2023-02-16T17:20:47.555Z,17.13
2023-02-16T17:23:17.141Z,19.70
2023-02-16T17:25:45.276Z,18.73
2023-02-16T17:28:14.035Z,23.65
2023-02-16T17:30:41.693Z,18.60
2023-02-16T17:33:09.742Z,17.63
2023-02-16T17:35:39.276Z,14.25
2023-02-16T17:38:12.114Z,15.27
2023-02-16T17:40:41.361Z,20.02
2023-02-16T17:43:13.553Z,15.15
2023-02-16T17:45:41.354Z,20.90
2023-02-16T17:48:09.436Z,14.70
2023-02-16T17:50:37.401Z,14.13
2023-02-16T17:53:05.097Z,21.05
2023-02-16T17:55:35.414Z,15.38
2023-02-16T17:58:03.061Z,16.95
2023-02-16T18:00:30.938Z,18.27
2023-02-16T18:02:59.367Z,19.92
2023-02-16T18:05:27.200Z,20.92
2023-02-16T18:07:56.799Z,15.25
2023-02-16T18:10:32.245Z,21.10
2023-02-16T18:13:01.374Z,22.77
2023-02-16T18:15:29.213Z,19.23
2023-02-16T18:17:57.113Z,21.85
2023-02-16T18:20:26.650Z,18.15
2023-02-16T18:22:55.048Z,21.73
2023-02-16T18:25:23.037Z,23.70
2023-02-16T18:27:50.831Z,16.77
2023-02-16T18:30:19.949Z,20.42
2023-02-16T18:32:47.645Z,17.92
2023-02-16T18:35:15.855Z,18.33
2023-02-16T18:37:43.791Z,21.23
2023-02-16T18:40:13.261Z,17.48
2023-02-16T18:42:41.262Z,15.57
2023-02-16T18:45:09.568Z,16.58
2023-02-16T18:47:39.150Z,17.25
2023-02-16T18:50:07.337Z,16.58
2023-02-16T18:52:35.136Z,12.68
2023-02-16T18:55:02.861Z,15.02
2023-02-16T18:57:30.646Z,18.83
2023-02-16T18:59:59.191Z,13.23
2023-02-16T19:02:26.864Z,11.65
2023-02-16T19:04:56.637Z,15.57
2023-02-16T19:07:24.555Z,10.10
2023-02-16T19:09:52.196Z,13.88
2023-02-16T19:12:19.882Z,10.40
2023-02-16T19:14:48.636Z,13.65
2023-02-16T19:17:16.333Z,12.23
2023-02-16T19:19:44.228Z,13.52
2023-02-16T19:22:13.467Z,11.88
2023-02-16T19:24:41.318Z,12.10
2023-02-16T19:27:09.008Z,10.05
2023-02-16T19:29:36.652Z,9.90
2023-02-16T19:32:04.490Z,8.10
2023-02-16T19:34:33.407Z,11.52
2023-02-16T19:37:01.391Z,11.77
2023-02-16T19:39:30.461Z,12.73
2023-02-16T19:41:58.186Z,10.52
2023-02-16T19:44:25.874Z,9.73
2023-02-16T19:46:53.532Z,11.68
2023-02-16T19:49:21.197Z,10.60
2023-02-16T19:51:49.426Z,9.23
2023-02-16T19:54:17.104Z,9.27
2023-02-16T19:56:46.154Z,10.52
2023-02-16T19:59:15.349Z,9.30
2023-02-16T20:01:43.291Z,12.10
2023-02-16T20:04:12.895Z,10.95
2023-02-16T20:06:42.017Z,11.82
2023-02-16T20:09:17.863Z,14.65
2023-02-16T20:11:47.305Z,13.52
2023-02-16T20:14:15.031Z,15.45
2023-02-16T20:16:42.719Z,12.57
2023-02-16T20:19:10.484Z,15.20
2023-02-16T20:21:38.292Z,15.57
2023-02-16T20:24:06.781Z,16.10
2023-02-16T20:26:35.881Z,13.60
2023-02-16T20:29:05.770Z,15.90
2023-02-16T20:31:34.687Z,20.45
2023-02-16T20:34:03.200Z,18.70
2023-02-16T20:36:31.641Z,14.05
2023-02-16T20:38:59.360Z,14.88
2023-02-16T20:41:27.153Z,17.00
2023-02-16T20:43:55.078Z,16.00
2023-02-16T20:46:24.930Z,17.73
2023-02-16T20:48:54.004Z,15.13
2023-02-16T20:51:21.938Z,16.17
2023-02-16T20:53:49.872Z,17.88
2023-02-16T20:56:19.990Z,14.48
2023-02-16T20:58:48.988Z,14.32
2023-02-16T21:01:17.847Z,14.10
2023-02-16T21:03:46.908Z,14.93
2023-02-16T21:06:14.575Z,13.95
2023-02-16T21:08:42.421Z,15.75
2023-02-16T21:11:10.398Z,15.82
2023-02-16T21:13:39.652Z,11.35
2023-02-16T21:16:08.397Z,11.85
2023-02-16T21:18:38.727Z,9.80
2023-02-16T21:21:09.502Z,10.38
2023-02-16T21:23:38.062Z,8.68
2023-02-16T21:26:06.734Z,8.63
2023-02-16T21:28:34.650Z,10.00
2023-02-16T21:31:03.987Z,11.77
2023-02-16T21:33:31.802Z,6.88
2023-02-16T21:36:04.221Z,7.50
2023-02-16T21:38:33.767Z,8.57
2023-02-16T21:41:22.778Z,7.50
2023-02-16T21:43:50.717Z,8.27
2023-02-16T21:46:18.508Z,8.13
2023-02-16T21:48:48.279Z,8.38
2023-02-16T21:51:16.909Z,7.05
2023-02-16T21:53:46.990Z,6.75
2023-02-16T21:56:24.346Z,7.30
2023-02-16T21:58:52.128Z,11.10
2023-02-16T22:01:23.574Z,8.27
2023-02-16T22:03:56.873Z,10.77
2023-02-16T22:06:25.393Z,7.70
2023-02-16T22:08:54.571Z,7.18
2023-02-16T22:11:22.577Z,6.95
2023-02-16T22:13:53.869Z,7.45
2023-02-16T22:16:21.799Z,9.75
2023-02-16T22:18:49.725Z,9.05
2023-02-16T22:21:17.611Z,6.68
2023-02-16T22:23:45.553Z,10.00
2023-02-16T22:26:20.788Z,8.45
2023-02-16T22:28:48.997Z,9.57
2023-02-16T22:31:16.739Z,10.00
2023-02-16T22:33:44.606Z,6.82
2023-02-16T22:36:14.005Z,8.20
2023-02-16T22:38:42.414Z,6.93
2023-02-16T22:41:11.048Z,9.55
2023-02-16T22:43:41.438Z,7.57
2023-02-16T22:46:10.353Z,7.78
2023-02-16T22:48:38.049Z,7.10
2023-02-16T22:51:07.026Z,8.55
2023-02-16T22:53:35.058Z,9.77
2023-02-16T22:56:03.427Z,8.07
2023-02-16T22:58:31.487Z,8.32
2023-02-16T23:01:00.797Z,10.25
2023-02-16T23:03:29.006Z,8.20
2023-02-16T23:05:56.720Z,8.32
2023-02-16T23:08:24.541Z,7.15
2023-02-16T23:11:00.996Z,7.30
2023-02-16T23:13:30.229Z,6.20
2023-02-16T23:15:58.519Z,6.35
2023-02-16T23:18:27.642Z,6.95
2023-02-16T23:20:55.361Z,8.23
2023-02-16T23:23:23.781Z,6.07
2023-02-16T23:25:51.556Z,6.18
2023-02-16T23:28:19.266Z,5.40
2023-02-16T23:30:47.711Z,6.72
2023-02-16T23:33:15.530Z,5.18
2023-02-16T23:35:44.565Z,7.65
2023-02-16T23:38:13.662Z,4.28
2023-02-16T23:40:41.348Z,4.03
2023-02-16T23:43:09.163Z,6.45
2023-02-16T23:45:36.885Z,6.00
2023-02-16T23:48:04.851Z,3.60
2023-02-16T23:50:32.496Z,6.00
2023-02-16T23:53:01.688Z,4.95
2023-02-16T23:55:29.354Z,5.75
2023-02-16T23:57:57.263Z,3.80
